Time;durP1;ratioP1;P1;durP2;ratioP2;P2;SDS_P1;SDS_P2;PMS_P1;PMS_P2;Temp;Humidity;BMP_temperature;BMP_pressure;BME280_temperature;BME280_humidity;BME280_pressure;Samples;Min_cycle;Max_cycle;Signal;HPM_P1;HPM_P2
2022/06/29 00:00:03;;;;;;;3.28;1.00;;;13.90;99.90;;;;;;5033225;28;20029;-77
2022/06/29 00:02:29;;;;;;;2.88;0.70;;;13.90;99.90;;;;;;5031201;28;20025;-77
2022/06/29 00:04:55;;;;;;;1.77;0.80;;;13.90;99.90;;;;;;5031986;28;20044;-77
2022/06/29 00:07:20;;;;;;;3.00;0.73;;;13.90;99.90;;;;;;5030828;28;20021;-77
2022/06/29 00:09:47;;;;;;;2.58;0.80;;;13.90;99.90;;;;;;5012926;28;20102;-77
2022/06/29 00:12:13;;;;;;;3.25;1.42;;;14.00;99.90;;;;;;5013037;28;20095;-76
2022/06/29 00:14:41;;;;;;;1.52;0.65;;;14.00;99.90;;;;;;5012666;28;20494;-77
2022/06/29 00:17:11;;;;;;;3.63;0.95;;;14.00;99.90;;;;;;5013488;28;20033;-77
2022/06/29 00:19:38;;;;;;;8.02;0.77;;;14.00;99.90;;;;;;5013195;28;20144;-77
2022/06/29 00:22:05;;;;;;;3.63;0.60;;;13.90;99.90;;;;;;5012599;28;20032;-77
2022/06/29 00:24:31;;;;;;;4.55;1.02;;;13.90;99.90;;;;;;5012420;28;20038;-77
2022/06/29 00:26:57;;;;;;;6.20;2.28;;;13.80;99.90;;;;;;5006174;28;20033;-77
2022/06/29 00:29:23;;;;;;;5.05;0.95;;;13.80;99.90;;;;;;5012288;28;20033;-77
2022/06/29 00:31:49;;;;;;;1.25;0.75;;;13.60;99.90;;;;;;5012683;28;20022;-77
2022/06/29 00:34:15;;;;;;;2.78;0.63;;;13.50;99.90;;;;;;4995070;28;20387;-76
2022/06/29 00:36:41;;;;;;;2.63;0.77;;;13.50;99.90;;;;;;5012610;28;20018;-77
2022/06/29 00:39:06;;;;;;;1.92;0.70;;;13.50;99.90;;;;;;5012389;28;20038;-76
2022/06/29 00:41:41;;;;;;;2.88;0.90;;;13.40;99.90;;;;;;5012747;28;20049;-76
2022/06/29 00:44:09;;;;;;;1.77;0.88;;;13.30;99.90;;;;;;5011601;28;20486;-77
2022/06/29 00:46:36;;;;;;;0.75;0.70;;;13.30;99.90;;;;;;4994044;28;20049;-77
2022/06/29 00:49:02;;;;;;;3.90;1.08;;;13.30;99.90;;;;;;5011285;28;20029;-77
2022/06/29 00:51:31;;;;;;;1.58;0.90;;;13.30;99.90;;;;;;5011489;28;20049;-76
2022/06/29 00:53:59;;;;;;;4.57;0.85;;;13.40;99.90;;;;;;5011360;28;20034;-77
2022/06/29 00:56:25;;;;;;;6.03;1.25;;;13.40;99.90;;;;;;5010996;28;20030;-76
2022/06/29 00:58:55;;;;;;;2.67;0.70;;;13.30;99.90;;;;;;5021392;22;20050;-76
2022/06/29 01:01:21;;;;;;;2.53;0.63;;;13.30;99.90;;;;;;4991634;28;20467;-76
2022/06/29 01:03:47;;;;;;;5.80;1.25;;;13.20;99.90;;;;;;4991463;28;20076;-76
2022/06/29 01:06:13;;;;;;;4.75;1.10;;;13.20;99.90;;;;;;4991817;28;20034;-76
2022/06/29 01:08:40;;;;;;;5.05;1.05;;;13.20;99.90;;;;;;4991538;28;20072;-76
2022/06/29 01:11:06;;;;;;;5.28;1.13;;;13.20;99.90;;;;;;4992269;28;20027;-75
2022/06/29 01:13:31;;;;;;;3.03;0.90;;;13.20;99.90;;;;;;4992348;28;20031;-76
2022/06/29 01:15:57;;;;;;;0.95;0.70;;;13.20;99.90;;;;;;4992009;28;20026;-76
2022/06/29 01:18:23;;;;;;;2.15;0.80;;;13.20;99.90;;;;;;4991723;28;20077;-76
2022/06/29 01:20:49;;;;;;;0.90;0.73;;;13.30;99.90;;;;;;4992045;28;20019;-76
2022/06/29 01:23:15;;;;;;;2.40;0.70;;;13.30;99.90;;;;;;4991806;28;20050;-76
2022/06/29 01:25:40;;;;;;;2.25;1.77;;;13.30;99.90;;;;;;4991287;28;20026;-76
2022/06/29 01:28:06;;;;;;;2.30;0.93;;;13.30;99.90;;;;;;4996578;28;20037;-76
2022/06/29 01:30:32;;;;;;;3.90;1.20;;;13.30;99.90;;;;;;4991731;28;20037;-76
2022/06/29 01:32:58;;;;;;;1.30;0.85;;;13.30;99.90;;;;;;4991263;28;20506;-76
2022/06/29 01:35:23;;;;;;;3.60;1.08;;;13.40;99.90;;;;;;4991776;28;20467;-76
2022/06/29 01:37:49;;;;;;;1.40;0.80;;;13.40;99.90;;;;;;4983507;28;20053;-76
2022/06/29 01:40:15;;;;;;;2.47;1.00;;;13.40;99.90;;;;;;4991194;28;20039;-76
2022/06/29 01:42:41;;;;;;;1.55;0.93;;;13.30;99.90;;;;;;4991286;28;20026;-76
2022/06/29 01:45:08;;;;;;;2.28;0.60;;;13.30;99.90;;;;;;4991543;28;20096;-76
2022/06/29 01:47:34;;;;;;;1.98;0.70;;;13.30;99.90;;;;;;4990670;28;20030;-76
2022/06/29 01:49:59;;;;;;;2.33;0.80;;;13.30;99.90;;;;;;4990717;28;20030;-76
2022/06/29 01:52:25;;;;;;;2.67;1.02;;;13.20;99.90;;;;;;4990832;28;20036;-76
2022/06/29 01:54:51;;;;;;;6.55;0.70;;;13.10;99.90;;;;;;4990328;28;20113;-76
2022/06/29 01:59:53;;;;;;;4.10;0.73;;;13.10;99.90;;;;;;5046680;28;20044;-76
2022/06/29 02:02:18;;;;;;;3.70;1.00;;;13.10;99.90;;;;;;5050740;28;20021;-77
2022/06/29 02:04:44;;;;;;;1.35;0.82;;;13.00;99.90;;;;;;5050432;28;20125;-77
2022/06/29 02:07:10;;;;;;;2.50;0.98;;;13.00;99.90;;;;;;5051032;28;20017;-77
2022/06/29 02:09:36;;;;;;;2.17;0.80;;;13.00;99.90;;;;;;5031468;28;20053;-77
2022/06/29 02:12:01;;;;;;;2.80;1.52;;;13.00;99.90;;;;;;5030587;28;20017;-77
2022/06/29 02:14:27;;;;;;;1.10;0.68;;;13.00;99.90;;;;;;5030523;28;20112;-77
2022/06/29 02:16:53;;;;;;;1.60;0.60;;;12.90;99.90;;;;;;5030641;28;20421;-77
2022/06/29 02:19:19;;;;;;;4.03;1.00;;;12.90;99.90;;;;;;5030425;28;20049;-77
2022/06/29 02:21:45;;;;;;;2.33;0.88;;;12.80;99.90;;;;;;5030378;28;20024;-77
2022/06/29 02:24:11;;;;;;;2.30;0.90;;;12.80;99.90;;;;;;5030161;28;20033;-77
2022/06/29 02:26:36;;;;;;;0.85;0.47;;;12.70;99.90;;;;;;5030621;28;21081;-77
2022/06/29 02:29:02;;;;;;;1.08;0.80;;;12.80;99.90;;;;;;5012284;28;20546;-77
2022/06/29 02:36:56;;;;;;;0.85;0.65;;;12.70;99.90;;;;;;5023954;28;20114;-77
2022/06/29 02:39:22;;;;;;;2.42;0.68;;;12.70;99.90;;;;;;5030224;28;20477;-77
2022/06/29 02:41:48;;;;;;;1.27;0.80;;;12.80;99.90;;;;;;5030186;28;20022;-77
2022/06/29 02:44:14;;;;;;;1.90;0.98;;;12.80;99.90;;;;;;5030425;28;20033;-77
2022/06/29 02:46:39;;;;;;;2.58;0.82;;;12.80;99.90;;;;;;5029949;28;20018;-77
2022/06/29 02:49:05;;;;;;;3.90;0.80;;;12.80;99.90;;;;;;5030231;28;20059;-76
2022/06/29 02:51:31;;;;;;;3.22;1.10;;;12.80;99.90;;;;;;5030584;28;20051;-77
2022/06/29 02:53:57;;;;;;;1.88;0.90;;;12.80;99.90;;;;;;5029847;28;20381;-77
2022/06/29 02:56:22;;;;;;;3.13;1.10;;;12.80;99.90;;;;;;5030093;28;20085;-77
2022/06/29 02:58:48;;;;;;;1.65;1.10;;;12.80;99.90;;;;;;5029027;22;20048;-76
2022/06/29 03:01:14;;;;;;;1.17;0.80;;;12.90;99.90;;;;;;4990911;28;20037;-76
2022/06/29 03:03:40;;;;;;;1.63;0.80;;;12.90;99.90;;;;;;4991083;28;20022;-76
2022/06/29 03:06:06;;;;;;;1.88;0.90;;;13.00;99.90;;;;;;4991518;28;20042;-76
2022/06/29 03:08:32;;;;;;;2.35;1.02;;;13.00;99.90;;;;;;4990707;28;20037;-76
2022/06/29 03:10:57;;;;;;;2.35;0.63;;;13.10;99.90;;;;;;4990116;28;20026;-76
2022/06/29 03:13:23;;;;;;;2.33;0.98;;;13.10;99.90;;;;;;4988900;28;20109;-76
2022/06/29 03:15:49;;;;;;;4.95;1.38;;;13.10;99.90;;;;;;4990153;28;20018;-76
2022/06/29 03:18:15;;;;;;;4.55;1.00;;;13.20;99.90;;;;;;4989912;28;20041;-76
2022/06/29 03:20:41;;;;;;;2.70;0.82;;;13.20;99.90;;;;;;4989224;28;20383;-76
2022/06/29 03:23:06;;;;;;;2.30;0.93;;;13.20;99.90;;;;;;4990615;28;20606;-76
2022/06/29 03:25:32;;;;;;;1.20;0.88;;;13.20;99.90;;;;;;4989950;28;20057;-76
2022/06/29 03:27:58;;;;;;;1.02;0.50;;;13.30;99.90;;;;;;4993307;28;20022;-76
2022/06/29 03:30:24;;;;;;;2.08;1.08;;;13.30;99.90;;;;;;4992011;28;20073;-76
2022/06/29 03:32:49;;;;;;;2.17;0.80;;;13.40;99.90;;;;;;4993481;28;20022;-76
2022/06/29 03:35:15;;;;;;;0.77;0.60;;;13.40;99.90;;;;;;4994065;28;20031;-76
2022/06/29 03:37:41;;;;;;;1.02;0.85;;;13.40;99.90;;;;;;4994116;28;20068;-76
2022/06/29 03:40:07;;;;;;;0.73;0.70;;;13.40;99.90;;;;;;4993465;28;20029;-77
2022/06/29 03:42:33;;;;;;;5.82;0.60;;;13.40;99.90;;;;;;4992871;28;20422;-76
2022/06/29 03:44:59;;;;;;;0.85;0.80;;;13.40;99.90;;;;;;4993457;28;20101;-76
2022/06/29 03:47:25;;;;;;;2.72;0.80;;;13.40;99.90;;;;;;4993169;28;20030;-76
2022/06/29 03:49:52;;;;;;;5.30;1.00;;;13.40;99.90;;;;;;4993413;28;20026;-76
2022/06/29 03:52:18;;;;;;;1.23;1.10;;;13.40;99.90;;;;;;4986903;28;20102;-76
2022/06/29 03:54:44;;;;;;;2.53;1.33;;;13.50;99.90;;;;;;4993332;28;20037;-76
2022/06/29 03:57:10;;;;;;;3.47;0.95;;;13.60;99.90;;;;;;4993557;28;20031;-76
2022/06/29 03:59:36;;;;;;;3.25;1.30;;;13.60;99.90;;;;;;4997520;28;20499;-76
2022/06/29 04:02:02;;;;;;;2.83;0.98;;;13.80;99.90;;;;;;4993372;28;20426;-76
2022/06/29 04:04:28;;;;;;;1.80;1.17;;;13.80;99.90;;;;;;4991992;28;20068;-76
2022/06/29 04:06:53;;;;;;;1.15;0.90;;;13.80;99.90;;;;;;4993364;28;20096;-76
2022/06/29 04:09:19;;;;;;;0.98;0.70;;;13.90;99.90;;;;;;4992949;28;20026;-76
2022/06/29 04:11:54;;;;;;;3.80;1.20;;;13.90;99.90;;;;;;4992807;28;20014;-76
2022/06/29 04:14:25;;;;;;;2.08;1.00;;;13.90;99.90;;;;;;4993157;28;20027;-76
2022/06/29 04:16:52;;;;;;;3.00;1.13;;;14.00;99.90;;;;;;4993406;28;20157;-76
2022/06/29 04:19:18;;;;;;;0.75;0.73;;;14.00;99.90;;;;;;4993136;28;20025;-76
2022/06/29 04:21:44;;;;;;;0.93;0.73;;;14.00;99.90;;;;;;4992648;28;20138;-76
2022/06/29 04:24:10;;;;;;;2.92;0.98;;;14.10;99.90;;;;;;4993340;28;20113;-76
2022/06/29 04:26:36;;;;;;;1.23;1.00;;;14.10;99.90;;;;;;4992952;28;20022;-76
2022/06/29 04:29:02;;;;;;;1.65;1.13;;;14.30;99.90;;;;;;4995196;28;20624;-76
2022/06/29 04:31:28;;;;;;;2.40;1.00;;;14.40;99.90;;;;;;4992856;28;20018;-76
2022/06/29 04:33:54;;;;;;;3.50;1.20;;;14.60;99.90;;;;;;4999008;28;20529;-76
2022/06/29 04:36:20;;;;;;;5.82;1.63;;;14.60;99.90;;;;;;4992253;28;20030;-75
2022/06/29 04:38:46;;;;;;;3.08;1.30;;;14.70;99.90;;;;;;4992905;28;20030;-76
2022/06/29 04:41:12;;;;;;;4.40;1.30;;;14.80;99.90;;;;;;4991753;28;20023;-76
2022/06/29 04:43:38;;;;;;;2.75;0.80;;;14.90;99.90;;;;;;4991593;28;20037;-76
2022/06/29 04:46:19;;;;;;;6.72;1.25;;;15.10;99.90;;;;;;4992362;28;20064;-76
2022/06/29 04:48:46;;;;;;;3.33;1.27;;;15.10;99.90;;;;;;4986829;28;20022;-75
2022/06/29 04:51:12;;;;;;;4.07;1.10;;;15.20;99.90;;;;;;5007745;28;20026;-75
2022/06/29 04:53:38;;;;;;;5.15;1.05;;;15.20;99.90;;;;;;4992458;28;20026;-77
2022/06/29 04:56:04;;;;;;;4.40;0.80;;;15.30;99.90;;;;;;4992129;28;20135;-77
2022/06/29 04:58:30;;;;;;;3.75;1.00;;;15.30;99.90;;;;;;5026272;23;20099;-78
2022/06/29 05:00:56;;;;;;;2.65;1.05;;;15.40;99.90;;;;;;5030848;28;20490;-76
2022/06/29 05:03:22;;;;;;;5.63;1.33;;;15.30;99.90;;;;;;5031577;28;20028;-76
2022/06/29 05:05:47;;;;;;;1.08;0.98;;;15.40;99.90;;;;;;5031401;28;20578;-78
2022/06/29 05:08:14;;;;;;;5.10;1.40;;;15.40;99.90;;;;;;5025086;28;20053;-78
2022/06/29 05:10:43;;;;;;;1.85;0.93;;;15.40;99.90;;;;;;5012039;28;20068;-78
2022/06/29 05:13:10;;;;;;;4.00;1.50;;;15.40;99.90;;;;;;4993765;28;20025;-78
2022/06/29 05:15:37;;;;;;;5.13;1.00;;;15.40;99.90;;;;;;5011793;28;20025;-77
2022/06/29 05:18:02;;;;;;;1.20;1.00;;;15.40;99.90;;;;;;5011247;28;20352;-78
2022/06/29 05:20:28;;;;;;;4.22;1.17;;;15.40;99.90;;;;;;5012200;28;20076;-76
2022/06/29 05:22:54;;;;;;;2.72;0.80;;;15.40;99.90;;;;;;5011540;28;20113;-76
2022/06/29 05:25:21;;;;;;;5.70;1.15;;;15.40;99.90;;;;;;4993870;28;20562;-76
2022/06/29 05:27:47;;;;;;;4.68;1.20;;;15.50;99.90;;;;;;5011371;28;20014;-76
2022/06/29 05:30:14;;;;;;;4.78;1.15;;;15.50;99.90;;;;;;5011425;28;20018;-78
2022/06/29 05:32:40;;;;;;;2.97;1.00;;;15.50;99.90;;;;;;5011360;28;20483;-76
2022/06/29 05:35:07;;;;;;;2.53;0.73;;;15.60;99.90;;;;;;4994032;28;20040;-76
2022/06/29 05:37:32;;;;;;;3.47;1.20;;;15.60;99.90;;;;;;5011121;28;20014;-75
2022/06/29 05:39:59;;;;;;;1.63;0.77;;;15.70;99.90;;;;;;5011375;28;20449;-78
2022/06/29 05:42:24;;;;;;;2.85;1.15;;;15.70;99.90;;;;;;5011613;28;20033;-76
2022/06/29 05:44:51;;;;;;;7.07;1.23;;;15.80;99.90;;;;;;5010998;28;20038;-76
2022/06/29 05:47:16;;;;;;;4.28;1.33;;;15.90;99.90;;;;;;5010569;28;20368;-76
2022/06/29 05:49:43;;;;;;;3.80;1.05;;;15.90;99.90;;;;;;5010444;28;20037;-78
2022/06/29 05:52:09;;;;;;;2.58;1.00;;;15.90;99.90;;;;;;5010438;28;20040;-78
2022/06/29 05:54:35;;;;;;;3.03;0.80;;;15.90;99.90;;;;;;5010220;28;20153;-78
2022/06/29 05:57:01;;;;;;;3.60;1.17;;;15.90;99.90;;;;;;5010827;28;20104;-77
2022/06/29 05:59:26;;;;;;;1.90;1.00;;;15.90;99.90;;;;;;5019467;22;20038;-76
2022/06/29 06:01:53;;;;;;;3.58;1.10;;;15.90;99.90;;;;;;4991344;28;20029;-76
2022/06/29 06:04:18;;;;;;;1.35;0.85;;;15.90;99.90;;;;;;4991626;28;20185;-76
2022/06/29 06:06:44;;;;;;;3.53;0.98;;;15.90;99.90;;;;;;4991336;28;20559;-76
2022/06/29 06:09:11;;;;;;;3.13;1.10;;;16.00;99.90;;;;;;4990766;28;20054;-76
2022/06/29 06:11:37;;;;;;;4.47;1.10;;;16.00;99.90;;;;;;4991083;28;20500;-76
2022/06/29 06:14:03;;;;;;;1.38;0.60;;;16.00;99.90;;;;;;4989138;28;20029;-76
2022/06/29 06:16:29;;;;;;;5.18;0.90;;;16.00;99.90;;;;;;4991085;28;20030;-77
2022/06/29 06:18:54;;;;;;;1.05;0.95;;;15.90;99.90;;;;;;4990591;28;20026;-76
2022/06/29 06:21:21;;;;;;;1.92;0.60;;;15.90;99.90;;;;;;4991180;28;20049;-77
2022/06/29 06:23:47;;;;;;;1.90;0.95;;;15.80;99.90;;;;;;4990812;28;20036;-76
2022/06/29 06:26:13;;;;;;;1.35;0.80;;;15.80;99.90;;;;;;4990693;28;20481;-77
2022/06/29 06:28:40;;;;;;;1.25;0.57;;;15.90;99.90;;;;;;4990055;28;20034;-76
2022/06/29 06:31:07;;;;;;;3.10;0.88;;;15.80;99.90;;;;;;4985961;28;20101;-76
2022/06/29 06:33:33;;;;;;;2.95;0.93;;;15.80;99.90;;;;;;4983409;28;20474;-76
2022/06/29 06:35:59;;;;;;;5.53;1.30;;;15.80;99.90;;;;;;4988653;28;20458;-76
2022/06/29 06:38:25;;;;;;;2.60;1.15;;;15.80;99.90;;;;;;4989761;28;20054;-76
2022/06/29 06:43:35;;;;;;;2.33;0.55;;;15.90;99.90;;;;;;4989966;28;20034;-78
2022/06/29 06:46:01;;;;;;;3.33;0.73;;;16.00;99.90;;;;;;4989334;28;20039;-78
2022/06/29 06:48:26;;;;;;;2.90;0.80;;;16.00;99.90;;;;;;4990112;28;20460;-77
2022/06/29 06:50:52;;;;;;;1.70;0.93;;;16.10;99.90;;;;;;4990131;28;20019;-78
2022/06/29 06:53:18;;;;;;;2.60;0.95;;;16.20;99.90;;;;;;4990667;28;20050;-78
2022/06/29 06:55:44;;;;;;;1.30;0.70;;;16.30;99.90;;;;;;4989485;28;20030;-78
2022/06/29 06:58:10;;;;;;;0.52;0.50;;;16.50;99.90;;;;;;5013983;23;20610;-78
2022/06/29 07:00:35;;;;;;;1.33;0.52;;;16.70;99.90;;;;;;5003898;28;20034;-78
2022/06/29 07:03:01;;;;;;;1.42;0.63;;;16.90;99.90;;;;;;5010246;28;20424;-78
2022/06/29 07:05:27;;;;;;;1.90;1.00;;;17.00;99.90;;;;;;5010885;28;20399;-78
2022/06/29 07:07:53;;;;;;;2.92;1.38;;;17.10;99.90;;;;;;5014239;28;20378;-78
2022/06/29 07:10:18;;;;;;;0.88;0.50;;;17.30;99.90;;;;;;5002022;28;20056;-78
2022/06/29 07:12:44;;;;;;;0.93;0.63;;;17.50;99.90;;;;;;5002838;28;20463;-78
2022/06/29 07:15:10;;;;;;;1.45;0.55;;;17.70;99.90;;;;;;5006036;28;20033;-78
2022/06/29 07:17:36;;;;;;;0.40;0.40;;;17.80;99.90;;;;;;5001753;28;20498;-78
2022/06/29 07:20:02;;;;;;;3.20;0.73;;;17.80;99.90;;;;;;5003402;28;20077;-77
2022/06/29 07:22:27;;;;;;;1.45;0.60;;;17.70;99.90;;;;;;5000894;28;20031;-77
2022/06/29 07:24:53;;;;;;;3.05;0.70;;;17.50;99.90;;;;;;4996203;28;20035;-77
2022/06/29 07:27:19;;;;;;;1.75;0.70;;;17.40;99.90;;;;;;5002333;28;20471;-78
2022/06/29 07:29:45;;;;;;;0.80;0.60;;;17.40;99.90;;;;;;4987838;28;20018;-77
2022/06/29 07:32:10;;;;;;;2.63;0.60;;;17.40;99.90;;;;;;4993390;28;20018;-79
2022/06/29 07:34:37;;;;;;;5.47;0.98;;;17.60;99.90;;;;;;5003575;28;20580;-78
2022/06/29 07:37:03;;;;;;;0.98;0.68;;;17.40;99.90;;;;;;5006044;28;20103;-78
2022/06/29 07:39:31;;;;;;;2.65;1.00;;;17.40;99.90;;;;;;4983303;28;20048;-78
2022/06/29 07:41:57;;;;;;;2.05;0.80;;;17.30;99.90;;;;;;5002997;28;20033;-78
2022/06/29 07:44:23;;;;;;;2.72;0.73;;;17.20;99.90;;;;;;4987589;28;20034;-78
2022/06/29 07:46:49;;;;;;;1.65;0.80;;;17.20;99.90;;;;;;5005667;28;20040;-78
2022/06/29 07:49:15;;;;;;;4.93;0.90;;;17.20;99.90;;;;;;4996606;28;20041;-78
2022/06/29 07:51:40;;;;;;;4.57;0.88;;;17.00;99.90;;;;;;4999566;28;20391;-78
2022/06/29 07:54:06;;;;;;;2.88;0.93;;;16.90;99.90;;;;;;5005155;28;20026;-78
2022/06/29 07:56:33;;;;;;;0.70;0.70;;;16.80;99.90;;;;;;5002838;28;20155;-78
2022/06/29 07:59:03;;;;;;;4.03;1.35;;;16.50;99.90;;;;;;4999748;28;20050;-78
2022/06/29 08:01:28;;;;;;;3.38;1.02;;;16.60;99.90;;;;;;4996793;28;20179;-77
2022/06/29 08:03:55;;;;;;;4.82;0.95;;;16.60;99.90;;;;;;4998903;28;20503;-78
2022/06/29 08:06:21;;;;;;;1.17;1.05;;;16.60;99.90;;;;;;5007179;28;20022;-77
2022/06/29 08:08:48;;;;;;;2.08;0.70;;;16.60;99.90;;;;;;5002054;28;20029;-78
2022/06/29 08:11:13;;;;;;;2.38;0.95;;;16.60;99.90;;;;;;5002517;28;20028;-78
2022/06/29 08:13:39;;;;;;;4.55;1.00;;;16.60;99.90;;;;;;4999040;28;20398;-77
2022/06/29 08:16:09;;;;;;;1.00;0.90;;;16.60;99.90;;;;;;4999119;28;20022;-78
2022/06/29 08:18:35;;;;;;;1.25;1.02;;;16.50;99.90;;;;;;5000374;28;20022;-78
2022/06/29 08:21:04;;;;;;;1.48;1.13;;;16.40;99.90;;;;;;5001822;28;20026;-78
2022/06/29 08:23:30;;;;;;;5.93;1.08;;;16.30;99.90;;;;;;5005174;28;20024;-77
2022/06/29 08:25:56;;;;;;;3.08;1.20;;;16.20;99.90;;;;;;5000382;28;20061;-78
2022/06/29 08:28:25;;;;;;;1.30;1.20;;;16.20;99.90;;;;;;5002330;28;20027;-78
2022/06/29 08:30:50;;;;;;;3.10;1.20;;;16.30;99.90;;;;;;5000349;28;20143;-78
2022/06/29 08:33:17;;;;;;;6.97;2.00;;;16.40;99.90;;;;;;5004405;28;20675;-78
2022/06/29 08:35:43;;;;;;;3.95;1.67;;;16.50;99.90;;;;;;4980222;28;20067;-79
2022/06/29 08:38:09;;;;;;;2.60;1.20;;;16.60;99.90;;;;;;5005672;28;20034;-78
2022/06/29 08:40:48;;;;;;;4.68;1.55;;;16.60;99.90;;;;;;4998173;28;20093;-79
2022/06/29 08:43:19;;;;;;;5.82;1.40;;;16.70;99.90;;;;;;5004568;28;20122;-78
2022/06/29 08:45:48;;;;;;;2.22;1.13;;;16.80;99.90;;;;;;5001357;28;20471;-78
2022/06/29 08:48:15;;;;;;;2.40;1.33;;;16.80;99.90;;;;;;4983501;28;20100;-78
2022/06/29 08:50:43;;;;;;;4.60;1.00;;;16.70;99.90;;;;;;5001591;28;20031;-78
2022/06/29 08:53:15;;;;;;;2.95;1.10;;;16.70;99.90;;;;;;4996361;28;20019;-79
2022/06/29 08:55:46;;;;;;;4.20;1.30;;;16.60;99.90;;;;;;5001425;28;20030;-79
2022/06/29 08:58:18;;;;;;;3.85;1.50;;;16.70;99.90;;;;;;4997857;28;20651;-79
2022/06/29 09:00:45;;;;;;;2.30;1.17;;;16.80;99.90;;;;;;5000129;28;20069;-79
2022/06/29 09:03:10;;;;;;;1.75;1.17;;;17.00;99.90;;;;;;4996848;28;20057;-79
2022/06/29 09:05:40;;;;;;;1.58;1.27;;;17.30;99.90;;;;;;4983569;28;20062;-79
2022/06/29 09:08:05;;;;;;;1.50;0.90;;;17.40;99.90;;;;;;5000520;28;20047;-78
2022/06/29 09:10:31;;;;;;;5.85;1.40;;;17.50;99.90;;;;;;5003542;28;20395;-79
2022/06/29 09:12:58;;;;;;;2.80;0.65;;;17.50;99.90;;;;;;4989495;28;20026;-79
2022/06/29 09:15:35;;;;;;;2.28;1.00;;;17.70;99.90;;;;;;4988766;28;20411;-79
2022/06/29 09:18:04;;;;;;;4.15;0.93;;;17.80;99.90;;;;;;4982102;28;20015;-78
2022/06/29 09:20:40;;;;;;;2.38;0.85;;;17.80;99.90;;;;;;5002886;28;20025;-78
2022/06/29 09:23:09;;;;;;;2.97;0.60;;;18.00;99.90;;;;;;5001004;28;20026;-78
2022/06/29 09:25:41;;;;;;;3.25;0.90;;;18.40;99.90;;;;;;5000962;28;20034;-79
2022/06/29 09:28:27;;;;;;;4.63;0.95;;;18.50;99.90;;;;;;4998434;28;20011;-78
2022/06/29 09:30:54;;;;;;;1.95;0.60;;;18.30;99.90;;;;;;5000896;28;20034;-79
2022/06/29 09:33:28;;;;;;;0.70;0.50;;;18.20;99.90;;;;;;4995679;28;20014;-78
2022/06/29 09:36:08;;;;;;;0.75;0.68;;;18.10;99.90;;;;;;4999738;28;20023;-77
2022/06/29 09:38:35;;;;;;;1.17;0.60;;;17.80;99.90;;;;;;4995375;28;20487;-77
2022/06/29 09:41:09;;;;;;;1.95;0.63;;;17.70;99.90;;;;;;4997643;28;20058;-78
2022/06/29 09:43:43;;;;;;;0.40;0.40;;;17.40;99.90;;;;;;4994621;28;20019;-78
2022/06/29 09:46:11;;;;;;;1.15;0.40;;;17.40;99.90;;;;;;4997866;28;20378;-77
2022/06/29 09:48:39;;;;;;;1.10;0.40;;;17.30;99.90;;;;;;4996887;28;20518;-77
2022/06/29 09:53:59;;;;;;;1.38;0.30;;;16.90;99.90;;;;;;4999220;28;20560;-78
2022/06/29 09:56:27;;;;;;;1.80;0.40;;;16.80;99.90;;;;;;5003595;28;20028;-77
2022/06/29 09:58:56;;;;;;;2.30;0.60;;;16.80;99.90;;;;;;4981178;28;20033;-78
2022/06/29 10:04:08;;;;;;;3.13;0.65;;;16.90;99.90;;;;;;5002233;28;20025;-78
2022/06/29 10:06:34;;;;;;;1.67;0.70;;;17.10;99.90;;;;;;4994271;28;20030;-78
2022/06/29 10:09:03;;;;;;;4.28;0.77;;;17.40;99.90;;;;;;5003420;28;20109;-78
2022/06/29 10:14:43;;;;;;;6.53;1.30;;;17.90;99.90;;;;;;4995952;28;20552;-78
2022/06/29 10:17:40;;;;;;;5.23;1.07;;;18.10;99.90;;;;;;4998258;28;20026;-78
2022/06/29 10:20:18;;;;;;;3.67;0.95;;;18.30;99.90;;;;;;5003111;28;20064;-78
2022/06/29 10:22:44;;;;;;;3.72;0.77;;;18.30;99.90;;;;;;4998229;28;20506;-78
2022/06/29 10:25:12;;;;;;;10.38;1.20;;;18.20;99.90;;;;;;5001581;28;20038;-77
2022/06/29 10:27:38;;;;;;;4.80;1.40;;;18.10;99.90;;;;;;5001225;28;20014;-78
2022/06/29 10:30:28;;;;;;;3.67;1.20;;;17.80;99.90;;;;;;4997909;28;20391;-77
2022/06/29 10:33:29;;;;;;;1.80;1.10;;;17.60;99.90;;;;;;4998164;28;20015;-78
2022/06/29 10:36:06;;;;;;;5.78;1.08;;;17.30;99.90;;;;;;4995293;28;20125;-78
2022/06/29 10:38:55;;;;;;;3.45;1.05;;;17.30;99.90;;;;;;4992365;28;20471;-77
2022/06/29 10:44:07;;;;;;;3.20;0.90;;;17.30;99.90;;;;;;5004803;28;20024;-78
2022/06/29 10:46:58;;;;;;;2.53;1.00;;;17.40;99.90;;;;;;5002377;28;20058;-77
2022/06/29 10:49:24;;;;;;;1.70;0.90;;;17.40;99.90;;;;;;5002908;28;20026;-78
2022/06/29 10:51:51;;;;;;;1.83;0.63;;;17.60;99.90;;;;;;5007252;28;20037;-78
2022/06/29 10:54:24;;;;;;;6.95;0.68;;;17.70;99.90;;;;;;5002625;28;20023;-78
2022/06/29 10:56:51;;;;;;;6.93;0.90;;;18.00;99.90;;;;;;5003573;28;20049;-79
2022/06/29 10:59:36;;;;;;;4.28;0.82;;;18.60;99.90;;;;;;4984087;28;20045;-78
2022/06/29 11:02:17;;;;;;;2.05;0.50;;;19.40;99.90;;;;;;4976788;28;20030;-79
2022/06/29 11:04:43;;;;;;;5.88;0.60;;;20.50;99.90;;;;;;5006242;28;20026;-79
2022/06/29 11:12:51;;;;;;;1.52;0.38;;;23.60;99.90;;;;;;5006511;28;20375;-79
2022/06/29 11:15:40;;;;;;;2.45;0.70;;;24.60;97.10;;;;;;5001473;28;20023;-79
2022/06/29 11:18:07;;;;;;;3.58;0.32;;;25.50;91.90;;;;;;5002072;28;20030;-78
2022/06/29 11:20:33;;;;;;;2.28;0.57;;;25.30;77.70;;;;;;5003699;28;20022;-78
2022/06/29 11:22:58;;;;;;;1.75;0.40;;;24.80;80.20;;;;;;5005306;28;20025;-78
2022/06/29 11:25:26;;;;;;;1.52;0.50;;;23.90;82.00;;;;;;5001134;28;20089;-78
2022/06/29 11:27:52;;;;;;;2.47;0.40;;;23.80;89.80;;;;;;5001019;28;20356;-78
2022/06/29 11:30:22;;;;;;;4.85;0.60;;;24.20;85.70;;;;;;5001308;28;20118;-78
2022/06/29 11:32:49;;;;;;;1.70;0.40;;;24.60;79.70;;;;;;5005169;28;20021;-78
2022/06/29 11:35:21;;;;;;;1.88;0.55;;;26.00;80.70;;;;;;5001757;28;20149;-79
2022/06/29 11:37:51;;;;;;;3.22;0.45;;;27.80;68.60;;;;;;5000918;28;20022;-78
2022/06/29 11:40:20;;;;;;;4.53;0.55;;;29.10;64.50;;;;;;4996757;28;20022;-78
2022/06/29 11:43:04;;;;;;;2.30;0.45;;;30.60;59.50;;;;;;4997567;28;20022;-78
2022/06/29 11:45:45;;;;;;;0.45;0.17;;;31.90;58.50;;;;;;4979271;28;20038;-78
2022/06/29 11:48:22;;;;;;;2.13;0.20;;;32.20;47.60;;;;;;4977545;28;20027;-78
2022/06/29 11:50:49;;;;;;;2.60;0.32;;;33.00;51.80;;;;;;4996980;28;20056;-78
2022/06/29 11:53:37;;;;;;;1.10;0.40;;;33.00;49.60;;;;;;4984005;28;20022;-78
2022/06/29 11:56:13;;;;;;;0.93;0.20;;;32.70;51.70;;;;;;4977610;28;20065;-78
2022/06/29 11:58:42;;;;;;;1.00;0.30;;;32.60;52.20;;;;;;4985124;28;20031;-79
2022/06/29 12:01:13;;;;;;;1.98;0.60;;;32.10;47.60;;;;;;4994335;28;20029;-77
2022/06/29 12:03:47;;;;;;;1.48;0.25;;;32.90;47.00;;;;;;4998933;28;20018;-78
2022/06/29 12:06:14;;;;;;;1.63;0.47;;;33.80;47.80;;;;;;4996858;28;20121;-78
2022/06/29 12:08:40;;;;;;;2.25;0.50;;;34.30;43.40;;;;;;4997098;28;20491;-79
2022/06/29 12:11:06;;;;;;;2.05;0.30;;;34.10;43.30;;;;;;5000541;28;20045;-79
2022/06/29 12:13:32;;;;;;;1.98;0.47;;;34.50;45.80;;;;;;5000701;28;20508;-77
2022/06/29 12:15:57;;;;;;;2.28;0.60;;;34.90;46.60;;;;;;4996596;28;20030;-77
2022/06/29 12:18:23;;;;;;;5.22;0.75;;;34.80;44.10;;;;;;5000724;28;20045;-78
2022/06/29 12:20:49;;;;;;;4.68;0.60;;;34.60;45.10;;;;;;4997912;28;20352;-79
2022/06/29 12:23:15;;;;;;;1.50;0.60;;;34.20;45.40;;;;;;4997711;28;20058;-79
2022/06/29 12:25:41;;;;;;;3.45;0.90;;;34.80;43.20;;;;;;4999361;28;20026;-79
2022/06/29 12:28:07;;;;;;;3.45;0.50;;;34.50;44.10;;;;;;5002949;28;20030;-79
2022/06/29 12:30:34;;;;;;;2.17;0.80;;;34.90;44.00;;;;;;5003114;28;20049;-79
2022/06/29 12:33:00;;;;;;;2.22;0.52;;;34.40;43.00;;;;;;4993231;28;20027;-79
2022/06/29 12:35:26;;;;;;;3.42;0.50;;;33.50;41.20;;;;;;4978337;28;20189;-78
2022/06/29 12:37:57;;;;;;;4.28;0.60;;;32.70;44.90;;;;;;4982409;28;20372;-78
2022/06/29 12:40:27;;;;;;;3.40;0.68;;;31.60;46.40;;;;;;4991933;28;20068;-78
2022/06/29 12:42:53;;;;;;;3.38;0.75;;;31.00;46.30;;;;;;4998098;28;20081;-78
2022/06/29 12:45:19;;;;;;;3.30;0.85;;;31.40;47.20;;;;;;4994219;28;20045;-79
2022/06/29 12:47:46;;;;;;;5.45;0.88;;;32.20;45.60;;;;;;5004660;28;20029;-79
2022/06/29 12:50:12;;;;;;;5.80;1.00;;;32.40;47.20;;;;;;5000661;28;20026;-79
2022/06/29 12:52:45;;;;;;;3.50;0.88;;;31.30;45.00;;;;;;4999322;28;20026;-79
2022/06/29 12:55:14;;;;;;;3.30;0.77;;;30.20;49.00;;;;;;4998759;28;20030;-78
2022/06/29 12:57:43;;;;;;;1.45;0.30;;;29.00;50.20;;;;;;4992474;28;20050;-78
2022/06/29 13:00:11;;;;;;;4.15;0.70;;;27.40;51.90;;;;;;5000129;28;20044;-78
2022/06/29 13:02:37;;;;;;;3.28;0.90;;;25.90;54.60;;;;;;4979960;28;20027;-78
2022/06/29 13:05:04;;;;;;;5.90;1.00;;;25.60;60.60;;;;;;4978420;28;20034;-78
2022/06/29 13:07:30;;;;;;;2.25;0.70;;;25.20;60.90;;;;;;4998554;28;20026;-78
2022/06/29 13:09:57;;;;;;;2.55;0.90;;;24.90;62.20;;;;;;5003001;28;20029;-78
2022/06/29 13:12:23;;;;;;;4.15;1.17;;;24.50;62.60;;;;;;4999789;28;20041;-77
2022/06/29 13:14:49;;;;;;;4.03;0.98;;;24.50;67.20;;;;;;4992824;28;20467;-77
2022/06/29 13:17:16;;;;;;;4.65;1.38;;;24.40;63.60;;;;;;4991885;28;20085;-78